sensor_id;sensor_type;location;lat;lon;timestamp;P1;durP1;ratioP1;P2;durP2;ratioP2
22851;SDS011;11592;45.460;9.240;2022-08-21T00:02:01;2.45;;;1.50;;
22851;SDS011;11592;45.460;9.240;2022-08-21T00:04:29;2.00;;;1.65;;
22851;SDS011;11592;45.460;9.240;2022-08-21T00:06:57;2.10;;;1.65;;
22851;SDS011;11592;45.460;9.240;2022-08-21T00:09:25;2.88;;;1.45;;
22851;SDS011;11592;45.460;9.240;2022-08-21T00:11:52;3.35;;;1.70;;
22851;SDS011;11592;45.460;9.240;2022-08-21T00:14:19;2.00;;;1.60;;
22851;SDS011;11592;45.460;9.240;2022-08-21T00:16:46;4.40;;;1.70;;
22851;SDS011;11592;45.460;9.240;2022-08-21T00:19:12;2.35;;;1.60;;
22851;SDS011;11592;45.460;9.240;2022-08-21T00:21:39;6.32;;;1.52;;
22851;SDS011;11592;45.460;9.240;2022-08-21T00:24:09;4.45;;;1.42;;
22851;SDS011;11592;45.460;9.240;2022-08-21T00:26:37;3.72;;;1.48;;
22851;SDS011;11592;45.460;9.240;2022-08-21T00:29:04;2.08;;;1.50;;
22851;SDS011;11592;45.460;9.240;2022-08-21T00:31:30;4.15;;;1.75;;
22851;SDS011;11592;45.460;9.240;2022-08-21T00:33:57;4.15;;;1.70;;
22851;SDS011;11592;45.460;9.240;2022-08-21T00:36:26;4.20;;;1.60;;
22851;SDS011;11592;45.460;9.240;2022-08-21T00:38:53;2.47;;;1.70;;
22851;SDS011;11592;45.460;9.240;2022-08-21T00:41:20;4.13;;;1.55;;
22851;SDS011;11592;45.460;9.240;2022-08-21T00:44:05;3.03;;;1.45;;
22851;SDS011;11592;45.460;9.240;2022-08-21T00:46:33;2.13;;;1.73;;
22851;SDS011;11592;45.460;9.240;2022-08-21T00:49:00;2.70;;;1.70;;
22851;SDS011;11592;45.460;9.240;2022-08-21T00:51:49;3.55;;;1.90;;
22851;SDS011;11592;45.460;9.240;2022-08-21T00:54:22;1.90;;;1.50;;
22851;SDS011;11592;45.460;9.240;2022-08-21T00:56:54;4.65;;;1.90;;
22851;SDS011;11592;45.460;9.240;2022-08-21T00:59:26;10.18;;;2.97;;
22851;SDS011;11592;45.460;9.240;2022-08-21T01:01:55;21.27;;;3.50;;
22851;SDS011;11592;45.460;9.240;2022-08-21T01:04:22;25.70;;;3.83;;
22851;SDS011;11592;45.460;9.240;2022-08-21T01:06:49;20.05;;;3.53;;
22851;SDS011;11592;45.460;9.240;2022-08-21T01:09:17;18.65;;;3.60;;
22851;SDS011;11592;45.460;9.240;2022-08-21T01:11:45;11.75;;;2.90;;
22851;SDS011;11592;45.460;9.240;2022-08-21T01:14:12;17.83;;;3.22;;
22851;SDS011;11592;45.460;9.240;2022-08-21T01:16:41;9.10;;;2.03;;
22851;SDS011;11592;45.460;9.240;2022-08-21T01:19:10;12.30;;;2.10;;
22851;SDS011;11592;45.460;9.240;2022-08-21T01:21:39;14.13;;;2.88;;
22851;SDS011;11592;45.460;9.240;2022-08-21T01:24:06;5.20;;;1.70;;
22851;SDS011;11592;45.460;9.240;2022-08-21T01:26:34;7.72;;;1.48;;
22851;SDS011;11592;45.460;9.240;2022-08-21T01:29:07;2.35;;;1.40;;
22851;SDS011;11592;45.460;9.240;2022-08-21T01:31:54;6.50;;;1.77;;
22851;SDS011;11592;45.460;9.240;2022-08-21T01:34:20;4.28;;;1.67;;
22851;SDS011;11592;45.460;9.240;2022-08-21T01:36:47;5.95;;;1.55;;
22851;SDS011;11592;45.460;9.240;2022-08-21T01:39:14;4.75;;;1.65;;
22851;SDS011;11592;45.460;9.240;2022-08-21T01:41:42;4.10;;;1.83;;
22851;SDS011;11592;45.460;9.240;2022-08-21T01:44:09;3.70;;;1.40;;
22851;SDS011;11592;45.460;9.240;2022-08-21T01:46:35;2.50;;;1.38;;
22851;SDS011;11592;45.460;9.240;2022-08-21T01:49:03;1.58;;;1.15;;
22851;SDS011;11592;45.460;9.240;2022-08-21T01:51:30;3.20;;;1.20;;
22851;SDS011;11592;45.460;9.240;2022-08-21T01:53:57;1.48;;;1.10;;
22851;SDS011;11592;45.460;9.240;2022-08-21T01:56:24;3.42;;;1.30;;
22851;SDS011;11592;45.460;9.240;2022-08-21T01:58:52;2.28;;;1.40;;
22851;SDS011;11592;45.460;9.240;2022-08-21T02:01:19;3.97;;;1.17;;
22851;SDS011;11592;45.460;9.240;2022-08-21T02:03:46;3.33;;;1.52;;
22851;SDS011;11592;45.460;9.240;2022-08-21T02:06:14;2.92;;;1.17;;
22851;SDS011;11592;45.460;9.240;2022-08-21T02:08:43;4.40;;;1.23;;
22851;SDS011;11592;45.460;9.240;2022-08-21T02:11:11;1.23;;;1.10;;
22851;SDS011;11592;45.460;9.240;2022-08-21T02:13:38;1.45;;;1.13;;
22851;SDS011;11592;45.460;9.240;2022-08-21T02:16:05;17.13;;;1.40;;
22851;SDS011;11592;45.460;9.240;2022-08-21T02:18:34;2.30;;;1.27;;
22851;SDS011;11592;45.460;9.240;2022-08-21T02:21:01;1.73;;;1.00;;
22851;SDS011;11592;45.460;9.240;2022-08-21T02:23:29;1.30;;;0.98;;
22851;SDS011;11592;45.460;9.240;2022-08-21T02:25:57;2.65;;;1.15;;
22851;SDS011;11592;45.460;9.240;2022-08-21T02:28:25;2.00;;;1.30;;
22851;SDS011;11592;45.460;9.240;2022-08-21T02:30:53;3.88;;;1.13;;
22851;SDS011;11592;45.460;9.240;2022-08-21T02:33:21;1.13;;;0.90;;
22851;SDS011;11592;45.460;9.240;2022-08-21T02:35:49;1.65;;;1.00;;
22851;SDS011;11592;45.460;9.240;2022-08-21T02:38:18;1.88;;;1.05;;
22851;SDS011;11592;45.460;9.240;2022-08-21T02:40:48;3.72;;;1.10;;
22851;SDS011;11592;45.460;9.240;2022-08-21T02:43:16;2.42;;;1.20;;
22851;SDS011;11592;45.460;9.240;2022-08-21T02:45:44;3.97;;;1.27;;
22851;SDS011;11592;45.460;9.240;2022-08-21T02:48:14;1.65;;;1.05;;
22851;SDS011;11592;45.460;9.240;2022-08-21T02:51:05;3.72;;;1.23;;
22851;SDS011;11592;45.460;9.240;2022-08-21T02:53:37;4.68;;;1.35;;
22851;SDS011;11592;45.460;9.240;2022-08-21T02:56:05;2.75;;;1.25;;
22851;SDS011;11592;45.460;9.240;2022-08-21T02:58:35;1.40;;;0.98;;
22851;SDS011;11592;45.460;9.240;2022-08-21T03:01:05;2.25;;;1.75;;
22851;SDS011;11592;45.460;9.240;2022-08-21T03:03:39;4.38;;;1.67;;
22851;SDS011;11592;45.460;9.240;2022-08-21T03:06:08;2.85;;;1.40;;
22851;SDS011;11592;45.460;9.240;2022-08-21T03:08:36;2.28;;;1.90;;
22851;SDS011;11592;45.460;9.240;2022-08-21T03:11:03;4.05;;;2.38;;
22851;SDS011;11592;45.460;9.240;2022-08-21T03:13:32;3.13;;;2.00;;
22851;SDS011;11592;45.460;9.240;2022-08-21T03:15:59;3.15;;;2.20;;
22851;SDS011;11592;45.460;9.240;2022-08-21T03:18:30;4.15;;;1.83;;
22851;SDS011;11592;45.460;9.240;2022-08-21T03:20:57;3.08;;;1.85;;
22851;SDS011;11592;45.460;9.240;2022-08-21T03:23:23;4.18;;;1.77;;
22851;SDS011;11592;45.460;9.240;2022-08-21T03:25:57;3.47;;;1.90;;
22851;SDS011;11592;45.460;9.240;2022-08-21T03:28:24;4.22;;;2.10;;
22851;SDS011;11592;45.460;9.240;2022-08-21T03:30:52;7.22;;;2.47;;
22851;SDS011;11592;45.460;9.240;2022-08-21T03:33:19;3.63;;;2.40;;
22851;SDS011;11592;45.460;9.240;2022-08-21T03:35:52;4.45;;;2.53;;
22851;SDS011;11592;45.460;9.240;2022-08-21T03:38:27;3.65;;;2.60;;
22851;SDS011;11592;45.460;9.240;2022-08-21T03:40:55;3.63;;;2.40;;
22851;SDS011;11592;45.460;9.240;2022-08-21T03:43:22;3.85;;;3.03;;
22851;SDS011;11592;45.460;9.240;2022-08-21T03:45:48;5.15;;;2.72;;
22851;SDS011;11592;45.460;9.240;2022-08-21T03:48:17;4.53;;;3.20;;
22851;SDS011;11592;45.460;9.240;2022-08-21T03:50:45;5.00;;;2.97;;
22851;SDS011;11592;45.460;9.240;2022-08-21T03:53:13;5.75;;;2.78;;
22851;SDS011;11592;45.460;9.240;2022-08-21T03:55:44;5.28;;;3.00;;
22851;SDS011;11592;45.460;9.240;2022-08-21T03:58:13;4.40;;;2.70;;
22851;SDS011;11592;45.460;9.240;2022-08-21T04:00:43;4.15;;;2.50;;
22851;SDS011;11592;45.460;9.240;2022-08-21T04:03:11;5.18;;;2.22;;
22851;SDS011;11592;45.460;9.240;2022-08-21T04:05:38;6.25;;;2.60;;
22851;SDS011;11592;45.460;9.240;2022-08-21T04:08:06;3.25;;;2.38;;
22851;SDS011;11592;45.460;9.240;2022-08-21T04:10:34;3.88;;;2.58;;
22851;SDS011;11592;45.460;9.240;2022-08-21T04:13:03;3.55;;;2.40;;
22851;SDS011;11592;45.460;9.240;2022-08-21T04:15:30;3.42;;;2.53;;
22851;SDS011;11592;45.460;9.240;2022-08-21T04:17:57;7.95;;;2.83;;
22851;SDS011;11592;45.460;9.240;2022-08-21T04:20:25;6.07;;;3.00;;
22851;SDS011;11592;45.460;9.240;2022-08-21T04:22:52;4.57;;;3.42;;
22851;SDS011;11592;45.460;9.240;2022-08-21T04:25:20;5.28;;;3.25;;
22851;SDS011;11592;45.460;9.240;2022-08-21T04:27:48;4.68;;;2.90;;
22851;SDS011;11592;45.460;9.240;2022-08-21T04:30:15;5.43;;;3.22;;
22851;SDS011;11592;45.460;9.240;2022-08-21T04:32:43;4.45;;;3.00;;
22851;SDS011;11592;45.460;9.240;2022-08-21T04:35:16;3.58;;;2.40;;
22851;SDS011;11592;45.460;9.240;2022-08-21T04:37:47;3.33;;;2.10;;
22851;SDS011;11592;45.460;9.240;2022-08-21T04:40:15;4.47;;;2.20;;
22851;SDS011;11592;45.460;9.240;2022-08-21T04:42:45;6.30;;;2.35;;
22851;SDS011;11592;45.460;9.240;2022-08-21T04:47:48;2.95;;;2.17;;
22851;SDS011;11592;45.460;9.240;2022-08-21T04:50:19;2.30;;;1.77;;
22851;SDS011;11592;45.460;9.240;2022-08-21T04:52:48;2.83;;;2.00;;
22851;SDS011;11592;45.460;9.240;2022-08-21T04:55:16;4.32;;;2.25;;
22851;SDS011;11592;45.460;9.240;2022-08-21T04:57:44;2.38;;;1.80;;
22851;SDS011;11592;45.460;9.240;2022-08-21T05:00:15;4.47;;;1.60;;
22851;SDS011;11592;45.460;9.240;2022-08-21T05:02:45;1.65;;;1.55;;
22851;SDS011;11592;45.460;9.240;2022-08-21T05:05:14;2.22;;;1.70;;
22851;SDS011;11592;45.460;9.240;2022-08-21T05:07:42;4.10;;;1.80;;
22851;SDS011;11592;45.460;9.240;2022-08-21T05:10:09;3.63;;;1.80;;
22851;SDS011;11592;45.460;9.240;2022-08-21T05:12:39;2.53;;;1.80;;
22851;SDS011;11592;45.460;9.240;2022-08-21T05:15:08;4.22;;;1.75;;
22851;SDS011;11592;45.460;9.240;2022-08-21T05:17:39;2.85;;;1.70;;
22851;SDS011;11592;45.460;9.240;2022-08-21T05:20:07;2.13;;;1.50;;
22851;SDS011;11592;45.460;9.240;2022-08-21T05:22:35;2.42;;;1.67;;
22851;SDS011;11592;45.460;9.240;2022-08-21T05:25:02;1.92;;;1.55;;
22851;SDS011;11592;45.460;9.240;2022-08-21T05:27:35;2.80;;;1.88;;
22851;SDS011;11592;45.460;9.240;2022-08-21T05:30:05;3.70;;;1.50;;
22851;SDS011;11592;45.460;9.240;2022-08-21T05:32:33;2.55;;;1.80;;
22851;SDS011;11592;45.460;9.240;2022-08-21T05:35:01;2.47;;;1.75;;
22851;SDS011;11592;45.460;9.240;2022-08-21T05:37:30;3.22;;;1.42;;
22851;SDS011;11592;45.460;9.240;2022-08-21T05:39:57;3.72;;;1.60;;
22851;SDS011;11592;45.460;9.240;2022-08-21T05:42:45;3.22;;;1.35;;
22851;SDS011;11592;45.460;9.240;2022-08-21T05:45:22;3.90;;;1.60;;
22851;SDS011;11592;45.460;9.240;2022-08-21T05:48:09;2.35;;;1.50;;
22851;SDS011;11592;45.460;9.240;2022-08-21T05:50:36;2.53;;;1.45;;
22851;SDS011;11592;45.460;9.240;2022-08-21T05:53:04;4.30;;;1.50;;
22851;SDS011;11592;45.460;9.240;2022-08-21T05:55:33;2.38;;;1.48;;
22851;SDS011;11592;45.460;9.240;2022-08-21T05:58:01;2.55;;;1.75;;
22851;SDS011;11592;45.460;9.240;2022-08-21T06:00:28;2.38;;;1.50;;
22851;SDS011;11592;45.460;9.240;2022-08-21T06:02:55;3.80;;;1.42;;
22851;SDS011;11592;45.460;9.240;2022-08-21T06:05:23;5.63;;;1.65;;
22851;SDS011;11592;45.460;9.240;2022-08-21T06:08:02;2.20;;;1.40;;
22851;SDS011;11592;45.460;9.240;2022-08-21T06:10:30;3.08;;;1.48;;
22851;SDS011;11592;45.460;9.240;2022-08-21T06:12:57;3.35;;;1.48;;
22851;SDS011;11592;45.460;9.240;2022-08-21T06:15:24;1.85;;;1.33;;
22851;SDS011;11592;45.460;9.240;2022-08-21T06:17:52;2.30;;;1.30;;
22851;SDS011;11592;45.460;9.240;2022-08-21T06:20:19;2.40;;;1.38;;
22851;SDS011;11592;45.460;9.240;2022-08-21T06:22:46;1.73;;;1.30;;
22851;SDS011;11592;45.460;9.240;2022-08-21T06:25:14;1.80;;;1.30;;
22851;SDS011;11592;45.460;9.240;2022-08-21T06:27:41;13.68;;;2.70;;
22851;SDS011;11592;45.460;9.240;2022-08-21T06:30:08;4.50;;;1.45;;
22851;SDS011;11592;45.460;9.240;2022-08-21T06:32:35;3.22;;;1.35;;
22851;SDS011;11592;45.460;9.240;2022-08-21T06:35:04;14.10;;;2.50;;
22851;SDS011;11592;45.460;9.240;2022-08-21T06:37:31;14.77;;;1.75;;
22851;SDS011;11592;45.460;9.240;2022-08-21T06:39:59;3.28;;;1.40;;
22851;SDS011;11592;45.460;9.240;2022-08-21T06:42:26;3.42;;;1.40;;
22851;SDS011;11592;45.460;9.240;2022-08-21T06:44:54;2.90;;;1.20;;
22851;SDS011;11592;45.460;9.240;2022-08-21T06:47:22;2.60;;;1.30;;
22851;SDS011;11592;45.460;9.240;2022-08-21T06:49:49;4.93;;;1.60;;
22851;SDS011;11592;45.460;9.240;2022-08-21T06:52:16;2.47;;;1.35;;
22851;SDS011;11592;45.460;9.240;2022-08-21T06:54:43;3.15;;;1.40;;
22851;SDS011;11592;45.460;9.240;2022-08-21T06:57:10;1.52;;;1.13;;
22851;SDS011;11592;45.460;9.240;2022-08-21T06:59:37;3.03;;;1.33;;
22851;SDS011;11592;45.460;9.240;2022-08-21T07:02:03;2.08;;;1.20;;
22851;SDS011;11592;45.460;9.240;2022-08-21T07:04:30;1.85;;;1.17;;
22851;SDS011;11592;45.460;9.240;2022-08-21T07:06:57;2.00;;;1.08;;
22851;SDS011;11592;45.460;9.240;2022-08-21T07:09:24;3.05;;;1.10;;
22851;SDS011;11592;45.460;9.240;2022-08-21T07:11:52;2.28;;;0.98;;
22851;SDS011;11592;45.460;9.240;2022-08-21T07:14:21;5.15;;;1.23;;
22851;SDS011;11592;45.460;9.240;2022-08-21T07:16:48;1.42;;;0.90;;
22851;SDS011;11592;45.460;9.240;2022-08-21T07:19:17;2.20;;;1.20;;
22851;SDS011;11592;45.460;9.240;2022-08-21T07:21:44;1.95;;;1.10;;
22851;SDS011;11592;45.460;9.240;2022-08-21T07:24:11;1.77;;;0.95;;
22851;SDS011;11592;45.460;9.240;2022-08-21T07:26:38;1.83;;;1.38;;
22851;SDS011;11592;45.460;9.240;2022-08-21T07:29:06;2.63;;;1.20;;
22851;SDS011;11592;45.460;9.240;2022-08-21T07:31:33;1.80;;;1.13;;
22851;SDS011;11592;45.460;9.240;2022-08-21T07:33:59;3.35;;;1.48;;
22851;SDS011;11592;45.460;9.240;2022-08-21T07:36:26;4.72;;;1.63;;
22851;SDS011;11592;45.460;9.240;2022-08-21T07:38:54;1.85;;;1.15;;
22851;SDS011;11592;45.460;9.240;2022-08-21T07:41:22;2.85;;;1.10;;
22851;SDS011;11592;45.460;9.240;2022-08-21T07:43:51;2.75;;;1.10;;
22851;SDS011;11592;45.460;9.240;2022-08-21T07:46:18;2.45;;;1.23;;
22851;SDS011;11592;45.460;9.240;2022-08-21T07:48:45;3.72;;;1.02;;
22851;SDS011;11592;45.460;9.240;2022-08-21T07:51:14;1.85;;;0.90;;
22851;SDS011;11592;45.460;9.240;2022-08-21T07:53:47;1.88;;;1.27;;
22851;SDS011;11592;45.460;9.240;2022-08-21T07:56:15;2.60;;;1.20;;
22851;SDS011;11592;45.460;9.240;2022-08-21T07:58:43;4.88;;;1.30;;
22851;SDS011;11592;45.460;9.240;2022-08-21T08:01:10;1.40;;;1.20;;
22851;SDS011;11592;45.460;9.240;2022-08-21T08:03:37;2.25;;;1.00;;
22851;SDS011;11592;45.460;9.240;2022-08-21T08:06:05;1.55;;;1.08;;
22851;SDS011;11592;45.460;9.240;2022-08-21T08:08:34;1.58;;;1.10;;
22851;SDS011;11592;45.460;9.240;2022-08-21T08:11:01;1.83;;;1.38;;
22851;SDS011;11592;45.460;9.240;2022-08-21T08:13:28;1.50;;;1.10;;
22851;SDS011;11592;45.460;9.240;2022-08-21T08:15:55;2.58;;;1.15;;
22851;SDS011;11592;45.460;9.240;2022-08-21T08:18:22;2.85;;;1.13;;
22851;SDS011;11592;45.460;9.240;2022-08-21T08:20:49;2.88;;;1.02;;
22851;SDS011;11592;45.460;9.240;2022-08-21T08:23:16;5.10;;;1.30;;
22851;SDS011;11592;45.460;9.240;2022-08-21T08:25:43;2.55;;;1.38;;
22851;SDS011;11592;45.460;9.240;2022-08-21T08:28:10;1.65;;;1.25;;
22851;SDS011;11592;45.460;9.240;2022-08-21T08:30:43;1.73;;;1.20;;
22851;SDS011;11592;45.460;9.240;2022-08-21T08:33:11;1.25;;;0.95;;
22851;SDS011;11592;45.460;9.240;2022-08-21T08:35:38;2.35;;;1.10;;
22851;SDS011;11592;45.460;9.240;2022-08-21T08:38:07;3.33;;;1.20;;
22851;SDS011;11592;45.460;9.240;2022-08-21T08:40:39;4.85;;;1.40;;
22851;SDS011;11592;45.460;9.240;2022-08-21T08:43:12;2.05;;;1.08;;
22851;SDS011;11592;45.460;9.240;2022-08-21T08:45:40;2.10;;;1.20;;
22851;SDS011;11592;45.460;9.240;2022-08-21T08:48:13;1.83;;;1.20;;
22851;SDS011;11592;45.460;9.240;2022-08-21T08:50:57;7.55;;;1.20;;
22851;SDS011;11592;45.460;9.240;2022-08-21T08:53:30;1.38;;;1.13;;
22851;SDS011;11592;45.460;9.240;2022-08-21T08:56:01;2.10;;;1.15;;
22851;SDS011;11592;45.460;9.240;2022-08-21T08:58:31;2.05;;;1.35;;
22851;SDS011;11592;45.460;9.240;2022-08-21T09:01:00;1.80;;;1.20;;
22851;SDS011;11592;45.460;9.240;2022-08-21T09:03:28;3.42;;;1.63;;
22851;SDS011;11592;45.460;9.240;2022-08-21T09:05:58;3.38;;;1.40;;
22851;SDS011;11592;45.460;9.240;2022-08-21T09:14:27;2.53;;;1.17;;
22851;SDS011;11592;45.460;9.240;2022-08-21T09:17:45;1.52;;;1.20;;
22851;SDS011;11592;45.460;9.240;2022-08-21T09:19:59;4.70;;;3.00;;
22851;SDS011;11592;45.460;9.240;2022-08-21T09:25:46;2.25;;;1.67;;
22851;SDS011;11592;45.460;9.240;2022-08-21T09:28:16;2.47;;;1.67;;
22851;SDS011;11592;45.460;9.240;2022-08-21T09:30:43;1.83;;;1.35;;
22851;SDS011;11592;45.460;9.240;2022-08-21T09:33:11;4.65;;;1.77;;
22851;SDS011;11592;45.460;9.240;2022-08-21T09:35:52;2.03;;;1.67;;
22851;SDS011;11592;45.460;9.240;2022-08-21T09:38:24;2.50;;;1.52;;
22851;SDS011;11592;45.460;9.240;2022-08-21T09:41:27;2.10;;;1.35;;
22851;SDS011;11592;45.460;9.240;2022-08-21T09:43:53;1.55;;;1.45;;
22851;SDS011;11592;45.460;9.240;2022-08-21T09:46:22;3.72;;;1.80;;
22851;SDS011;11592;45.460;9.240;2022-08-21T09:48:52;3.60;;;1.80;;
22851;SDS011;11592;45.460;9.240;2022-08-21T09:51:29;2.30;;;1.70;;
22851;SDS011;11592;45.460;9.240;2022-08-21T09:56:33;2.17;;;1.63;;
22851;SDS011;11592;45.460;9.240;2022-08-21T09:59:28;2.33;;;1.75;;
22851;SDS011;11592;45.460;9.240;2022-08-21T10:02:36;2.55;;;1.92;;
22851;SDS011;11592;45.460;9.240;2022-08-21T10:05:21;1.88;;;1.65;;
22851;SDS011;11592;45.460;9.240;2022-08-21T10:07:53;3.78;;;2.33;;
22851;SDS011;11592;45.460;9.240;2022-08-21T10:10:24;4.18;;;1.75;;
22851;SDS011;11592;45.460;9.240;2022-08-21T10:12:59;2.20;;;1.70;;
22851;SDS011;11592;45.460;9.240;2022-08-21T10:23:45;3.05;;;2.10;;
22851;SDS011;11592;45.460;9.240;2022-08-21T10:26:30;4.22;;;1.70;;
22851;SDS011;11592;45.460;9.240;2022-08-21T10:34:36;1.58;;;1.38;;
22851;SDS011;11592;45.460;9.240;2022-08-21T10:40:27;2.00;;;1.52;;
22851;SDS011;11592;45.460;9.240;2022-08-21T10:46:50;2.38;;;1.45;;
22851;SDS011;11592;45.460;9.240;2022-08-21T10:51:33;1.55;;;1.27;;
22851;SDS011;11592;45.460;9.240;2022-08-21T10:54:13;4.35;;;1.40;;
22851;SDS011;11592;45.460;9.240;2022-08-21T10:56:56;1.65;;;1.40;;
22851;SDS011;11592;45.460;9.240;2022-08-21T10:59:47;3.58;;;1.40;;
22851;SDS011;11592;45.460;9.240;2022-08-21T11:02:29;2.50;;;1.77;;
22851;SDS011;11592;45.460;9.240;2022-08-21T11:05:04;3.08;;;1.40;;
22851;SDS011;11592;45.460;9.240;2022-08-21T11:07:55;3.60;;;1.60;;
22851;SDS011;11592;45.460;9.240;2022-08-21T11:10:55;2.33;;;1.27;;
22851;SDS011;11592;45.460;9.240;2022-08-21T11:16:40;2.22;;;1.50;;
22851;SDS011;11592;45.460;9.240;2022-08-21T11:22:02;1.95;;;1.20;;
22851;SDS011;11592;45.460;9.240;2022-08-21T11:24:52;1.58;;;1.40;;
22851;SDS011;11592;45.460;9.240;2022-08-21T11:27:39;3.00;;;1.30;;
22851;SDS011;11592;45.460;9.240;2022-08-21T11:30:17;1.50;;;1.20;;
22851;SDS011;11592;45.460;9.240;2022-08-21T11:38:29;2.77;;;1.80;;
22851;SDS011;11592;45.460;9.240;2022-08-21T11:46:19;7.45;;;2.38;;
22851;SDS011;11592;45.460;9.240;2022-08-21T11:49:03;5.05;;;2.08;;
22851;SDS011;11592;45.460;9.240;2022-08-21T11:54:29;3.50;;;1.27;;
22851;SDS011;11592;45.460;9.240;2022-08-21T11:56:59;4.35;;;1.73;;
22851;SDS011;11592;45.460;9.240;2022-08-21T11:59:45;2.83;;;1.35;;
22851;SDS011;11592;45.460;9.240;2022-08-21T12:02:31;1.40;;;1.30;;
22851;SDS011;11592;45.460;9.240;2022-08-21T12:07:39;1.85;;;1.30;;
22851;SDS011;11592;45.460;9.240;2022-08-21T12:10:11;2.03;;;1.15;;
22851;SDS011;11592;45.460;9.240;2022-08-21T12:12:47;1.83;;;1.20;;
22851;SDS011;11592;45.460;9.240;2022-08-21T12:23:15;1.58;;;1.40;;
22851;SDS011;11592;45.460;9.240;2022-08-21T12:28:50;2.17;;;1.42;;
22851;SDS011;11592;45.460;9.240;2022-08-21T12:31:28;1.27;;;1.15;;
22851;SDS011;11592;45.460;9.240;2022-08-21T12:33:57;1.40;;;1.05;;
22851;SDS011;11592;45.460;9.240;2022-08-21T12:36:48;3.33;;;0.90;;
22851;SDS011;11592;45.460;9.240;2022-08-21T12:39:24;1.10;;;0.93;;
22851;SDS011;11592;45.460;9.240;2022-08-21T12:41:55;1.85;;;1.02;;
22851;SDS011;11592;45.460;9.240;2022-08-21T12:44:41;3.08;;;1.65;;
22851;SDS011;11592;45.460;9.240;2022-08-21T12:47:22;2.90;;;1.58;;
22851;SDS011;11592;45.460;9.240;2022-08-21T12:52:38;3.33;;;1.30;;
22851;SDS011;11592;45.460;9.240;2022-08-21T12:55:11;1.67;;;1.08;;
22851;SDS011;11592;45.460;9.240;2022-08-21T12:57:41;2.50;;;1.35;;
22851;SDS011;11592;45.460;9.240;2022-08-21T13:00:10;1.38;;;1.02;;
22851;SDS011;11592;45.460;9.240;2022-08-21T13:02:42;1.52;;;1.10;;
22851;SDS011;11592;45.460;9.240;2022-08-21T13:05:14;1.73;;;0.93;;
22851;SDS011;11592;45.460;9.240;2022-08-21T13:07:47;2.63;;;1.10;;
22851;SDS011;11592;45.460;9.240;2022-08-21T13:10:20;2.03;;;1.20;;
22851;SDS011;11592;45.460;9.240;2022-08-21T13:12:50;1.35;;;1.17;;
22851;SDS011;11592;45.460;9.240;2022-08-21T13:15:23;1.58;;;0.93;;
22851;SDS011;11592;45.460;9.240;2022-08-21T13:17:58;1.42;;;1.17;;
22851;SDS011;11592;45.460;9.240;2022-08-21T13:20:32;1.27;;;1.00;;
22851;SDS011;11592;45.460;9.240;2022-08-21T13:23:46;4.20;;;1.10;;
22851;SDS011;11592;45.460;9.240;2022-08-21T13:25:55;5.13;;;1.00;;
22851;SDS011;11592;45.460;9.240;2022-08-21T13:28:22;1.00;;;0.85;;
22851;SDS011;11592;45.460;9.240;2022-08-21T13:30:51;1.75;;;1.10;;
22851;SDS011;11592;45.460;9.240;2022-08-21T13:33:21;1.73;;;1.02;;
22851;SDS011;11592;45.460;9.240;2022-08-21T13:36:09;1.10;;;1.00;;
22851;SDS011;11592;45.460;9.240;2022-08-21T13:38:40;2.05;;;0.98;;
22851;SDS011;11592;45.460;9.240;2022-08-21T13:41:10;1.45;;;1.05;;
22851;SDS011;11592;45.460;9.240;2022-08-21T13:43:44;1.65;;;1.00;;
22851;SDS011;11592;45.460;9.240;2022-08-21T13:46:15;2.00;;;1.20;;
22851;SDS011;11592;45.460;9.240;2022-08-21T13:48:44;0.90;;;0.90;;
22851;SDS011;11592;45.460;9.240;2022-08-21T13:51:10;2.47;;;1.10;;
22851;SDS011;11592;45.460;9.240;2022-08-21T13:56:07;1.40;;;1.30;;
22851;SDS011;11592;45.460;9.240;2022-08-21T13:58:44;1.45;;;0.90;;
22851;SDS011;11592;45.460;9.240;2022-08-21T14:04:20;1.40;;;1.08;;
22851;SDS011;11592;45.460;9.240;2022-08-21T14:06:50;1.70;;;1.13;;
22851;SDS011;11592;45.460;9.240;2022-08-21T14:09:34;2.15;;;1.05;;
22851;SDS011;11592;45.460;9.240;2022-08-21T14:12:12;1.40;;;1.20;;
22851;SDS011;11592;45.460;9.240;2022-08-21T14:14:50;1.10;;;1.00;;
22851;SDS011;11592;45.460;9.240;2022-08-21T14:17:28;1.52;;;0.95;;
22851;SDS011;11592;45.460;9.240;2022-08-21T14:19:59;2.22;;;1.02;;
22851;SDS011;11592;45.460;9.240;2022-08-21T14:22:37;1.65;;;1.42;;
22851;SDS011;11592;45.460;9.240;2022-08-21T14:25:10;6.18;;;1.10;;
22851;SDS011;11592;45.460;9.240;2022-08-21T14:27:39;0.90;;;0.90;;
22851;SDS011;11592;45.460;9.240;2022-08-21T14:30:19;1.58;;;1.10;;
22851;SDS011;11592;45.460;9.240;2022-08-21T14:33:09;1.17;;;1.00;;
22851;SDS011;11592;45.460;9.240;2022-08-21T14:35:38;2.05;;;1.05;;
22851;SDS011;11592;45.460;9.240;2022-08-21T14:38:13;1.70;;;1.15;;
22851;SDS011;11592;45.460;9.240;2022-08-21T14:40:47;1.20;;;1.10;;
22851;SDS011;11592;45.460;9.240;2022-08-21T14:43:16;1.05;;;1.00;;
22851;SDS011;11592;45.460;9.240;2022-08-21T14:45:45;1.25;;;0.93;;
22851;SDS011;11592;45.460;9.240;2022-08-21T14:48:12;1.20;;;1.10;;
22851;SDS011;11592;45.460;9.240;2022-08-21T14:50:39;1.42;;;1.00;;
22851;SDS011;11592;45.460;9.240;2022-08-21T14:53:07;1.02;;;0.95;;
22851;SDS011;11592;45.460;9.240;2022-08-21T14:55:36;2.38;;;1.10;;
22851;SDS011;11592;45.460;9.240;2022-08-21T14:58:23;1.02;;;0.93;;
22851;SDS011;11592;45.460;9.240;2022-08-21T15:00:51;1.20;;;1.10;;
22851;SDS011;11592;45.460;9.240;2022-08-21T15:03:18;1.23;;;0.95;;
22851;SDS011;11592;45.460;9.240;2022-08-21T15:05:48;1.95;;;0.90;;
22851;SDS011;11592;45.460;9.240;2022-08-21T15:08:16;2.38;;;1.30;;
22851;SDS011;11592;45.460;9.240;2022-08-21T15:10:43;1.17;;;1.08;;
22851;SDS011;11592;45.460;9.240;2022-08-21T15:13:31;1.98;;;1.08;;
22851;SDS011;11592;45.460;9.240;2022-08-21T15:15:59;3.33;;;1.00;;
22851;SDS011;11592;45.460;9.240;2022-08-21T15:18:26;1.20;;;1.10;;
22851;SDS011;11592;45.460;9.240;2022-08-21T15:20:55;1.23;;;1.10;;
22851;SDS011;11592;45.460;9.240;2022-08-21T15:23:22;0.90;;;0.90;;
22851;SDS011;11592;45.460;9.240;2022-08-21T15:25:49;2.30;;;1.08;;
22851;SDS011;11592;45.460;9.240;2022-08-21T15:28:18;1.13;;;0.98;;
22851;SDS011;11592;45.460;9.240;2022-08-21T15:30:49;5.53;;;2.25;;
22851;SDS011;11592;45.460;9.240;2022-08-21T15:33:17;1.40;;;0.93;;
22851;SDS011;11592;45.460;9.240;2022-08-21T15:35:45;0.80;;;0.80;;
22851;SDS011;11592;45.460;9.240;2022-08-21T15:38:12;1.52;;;1.10;;
22851;SDS011;11592;45.460;9.240;2022-08-21T15:40:40;1.38;;;0.90;;
22851;SDS011;11592;45.460;9.240;2022-08-21T15:43:27;2.15;;;1.00;;
22851;SDS011;11592;45.460;9.240;2022-08-21T15:45:59;2.53;;;1.40;;
22851;SDS011;11592;45.460;9.240;2022-08-21T15:48:27;1.27;;;1.00;;
22851;SDS011;11592;45.460;9.240;2022-08-21T15:50:54;1.30;;;1.20;;
22851;SDS011;11592;45.460;9.240;2022-08-21T15:53:21;8.48;;;1.15;;
22851;SDS011;11592;45.460;9.240;2022-08-21T15:55:49;2.75;;;1.00;;
22851;SDS011;11592;45.460;9.240;2022-08-21T15:58:16;1.50;;;0.98;;
22851;SDS011;11592;45.460;9.240;2022-08-21T16:00:46;2.05;;;1.02;;
22851;SDS011;11592;45.460;9.240;2022-08-21T16:03:14;1.05;;;0.93;;
22851;SDS011;11592;45.460;9.240;2022-08-21T16:05:44;1.63;;;1.40;;
22851;SDS011;11592;45.460;9.240;2022-08-21T16:08:11;4.95;;;1.10;;
22851;SDS011;11592;45.460;9.240;2022-08-21T16:10:38;1.20;;;0.88;;
22851;SDS011;11592;45.460;9.240;2022-08-21T16:13:10;0.80;;;0.80;;
22851;SDS011;11592;45.460;9.240;2022-08-21T16:15:42;1.10;;;0.98;;
22851;SDS011;11592;45.460;9.240;2022-08-21T16:18:09;1.73;;;1.10;;
22851;SDS011;11592;45.460;9.240;2022-08-21T16:20:36;1.52;;;1.05;;
22851;SDS011;11592;45.460;9.240;2022-08-21T16:23:03;1.20;;;1.10;;
22851;SDS011;11592;45.460;9.240;2022-08-21T16:25:33;1.05;;;0.95;;
22851;SDS011;11592;45.460;9.240;2022-08-21T16:30:38;3.15;;;1.17;;
22851;SDS011;11592;45.460;9.240;2022-08-21T16:33:04;1.15;;;1.00;;